AXM6220 WMKK-WMKN
Flight info
| Callsign | AXM6220 |
|---|---|
| Flight time | 0h 37m |
| Altitude | 23000 |
| Route | PIBOS1F PIBOS R208 GUNBO GUNBO1E |
| Aircraft | A20N/M-SDE2E3FGHIRWXY/LB1 |
Departure
| Time | 2026-05-04 15:10 |
|---|---|
| Airport | Kuala Lumpur International Airport (WMKK) |
Arrival
| Time | 2026-05-04 15:47 |
|---|---|
| Airport | Sultan Mahmud Airport (WMKN) |
| Time | Latitude | Longitude | Altitude | Speed | Heading |
|---|---|---|---|---|---|
| 2026-05-04 14:19 | 2.73996 | 101.68420 | 75 ft | 0 kts | 326° |
| 2026-05-04 14:53 | 2.73990 | 101.68424 | 75 ft | 2 kts | 326° |
| 2026-05-04 14:53 | 2.73980 | 101.68430 | 75 ft | 1 kts | 326° |
| 2026-05-04 14:54 | 2.73970 | 101.68439 | 75 ft | 2 kts | 296° |
| 2026-05-04 14:54 | 2.73967 | 101.68454 | 75 ft | 2 kts | 266° |
| 2026-05-04 14:54 | 2.73970 | 101.68467 | 75 ft | 0 kts | 240° |
| 2026-05-04 14:54 | 2.73974 | 101.68471 | 75 ft | 1 kts | 234° |
| 2026-05-04 14:55 | 2.73975 | 101.68474 | 75 ft | 0 kts | 235° |
| 2026-05-04 14:59 | 2.73961 | 101.68458 | 75 ft | 6 kts | 222° |
| 2026-05-04 14:59 | 2.73910 | 101.68430 | 75 ft | 9 kts | 205° |
| 2026-05-04 14:59 | 2.73814 | 101.68314 | 75 ft | 12 kts | 236° |
| 2026-05-04 15:00 | 2.73765 | 101.68242 | 75 ft | 13 kts | 236° |
| 2026-05-04 15:00 | 2.73724 | 101.68181 | 75 ft | 8 kts | 230° |
| 2026-05-04 15:00 | 2.73666 | 101.68189 | 75 ft | 10 kts | 147° |
| 2026-05-04 15:01 | 2.73540 | 101.68274 | 75 ft | 11 kts | 146° |
| 2026-05-04 15:01 | 2.73490 | 101.68307 | 75 ft | 6 kts | 146° |
| 2026-05-04 15:01 | 2.73475 | 101.68317 | 75 ft | 0 kts | 146° |
| 2026-05-04 15:02 | 2.73446 | 101.68336 | 75 ft | 9 kts | 148° |
| 2026-05-04 15:03 | 2.73374 | 101.68383 | 75 ft | 13 kts | 144° |
| 2026-05-04 15:03 | 2.73296 | 101.68437 | 75 ft | 14 kts | 146° |
| 2026-05-04 15:03 | 2.73212 | 101.68494 | 75 ft | 14 kts | 146° |
| 2026-05-04 15:03 | 2.73118 | 101.68556 | 75 ft | 18 kts | 146° |
| 2026-05-04 15:04 | 2.73004 | 101.68633 | 75 ft | 20 kts | 146° |
| 2026-05-04 15:04 | 2.72887 | 101.68711 | 75 ft | 19 kts | 146° |
| 2026-05-04 15:04 | 2.72771 | 101.68789 | 75 ft | 19 kts | 146° |
| 2026-05-04 15:04 | 2.72643 | 101.68875 | 75 ft | 23 kts | 146° |
| 2026-05-04 15:05 | 2.72509 | 101.68964 | 75 ft | 22 kts | 146° |
| 2026-05-04 15:05 | 2.72380 | 101.69051 | 75 ft | 22 kts | 146° |
| 2026-05-04 15:05 | 2.72253 | 101.69136 | 75 ft | 21 kts | 146° |
| 2026-05-04 15:05 | 2.72130 | 101.69219 | 75 ft | 21 kts | 146° |
| 2026-05-04 15:06 | 2.72006 | 101.69302 | 75 ft | 21 kts | 146° |
| 2026-05-04 15:06 | 2.71905 | 101.69370 | 75 ft | 13 kts | 146° |
| 2026-05-04 15:06 | 2.71838 | 101.69386 | 75 ft | 10 kts | 207° |
| 2026-05-04 15:07 | 2.71765 | 101.69292 | 75 ft | 0 kts | 244° |
| 2026-05-04 15:07 | 2.71761 | 101.69282 | 75 ft | 3 kts | 251° |
| 2026-05-04 15:08 | 2.71764 | 101.69238 | 75 ft | 8 kts | 287° |
| 2026-05-04 15:08 | 2.71792 | 101.69182 | 75 ft | 10 kts | 300° |
| 2026-05-04 15:08 | 2.71822 | 101.69114 | 75 ft | 10 kts | 279° |
| 2026-05-04 15:08 | 2.71845 | 101.69074 | 75 ft | 0 kts | 326° |
| 2026-05-04 15:09 | 2.71888 | 101.69046 | 75 ft | 35 kts | 326° |
| 2026-05-04 15:09 | 2.72352 | 101.68735 | 75 ft | 122 kts | 326° |
| 2026-05-04 15:09 | 2.73238 | 101.68130 | 258 ft | 172 kts | 324° |
| 2026-05-04 15:10 | 2.75253 | 101.66744 | 1979 ft | 184 kts | 326° |
| 2026-05-04 15:10 | 2.76148 | 101.65852 | 2892 ft | 191 kts | 294° |
| 2026-05-04 15:10 | 2.76530 | 101.62987 | 4263 ft | 229 kts | 292° |
| 2026-05-04 15:11 | 2.77443 | 101.61617 | 4922 ft | 245 kts | 311° |
| 2026-05-04 15:11 | 2.78647 | 101.60344 | 5607 ft | 261 kts | 314° |
| 2026-05-04 15:11 | 2.79952 | 101.59045 | 6282 ft | 272 kts | 315° |
| 2026-05-04 15:11 | 2.81314 | 101.57704 | 6961 ft | 276 kts | 315° |
| 2026-05-04 15:12 | 2.82687 | 101.56355 | 7636 ft | 279 kts | 315° |
| 2026-05-04 15:12 | 2.84182 | 101.55080 | 8301 ft | 282 kts | 331° |
| 2026-05-04 15:12 | 2.86054 | 101.54636 | 8960 ft | 283 kts | 5° |
| 2026-05-04 15:12 | 2.87904 | 101.55267 | 9635 ft | 286 kts | 34° |
| 2026-05-04 15:13 | 2.89354 | 101.56660 | 10327 ft | 291 kts | 49° |
| 2026-05-04 15:13 | 2.90687 | 101.58215 | 11004 ft | 302 kts | 49° |
| 2026-05-04 15:13 | 2.92121 | 101.59837 | 11693 ft | 313 kts | 48° |
| 2026-05-04 15:13 | 2.93593 | 101.61457 | 12368 ft | 322 kts | 47° |
| 2026-05-04 15:14 | 2.95136 | 101.63123 | 13047 ft | 331 kts | 47° |
| 2026-05-04 15:14 | 2.96735 | 101.64835 | 13729 ft | 340 kts | 47° |
| 2026-05-04 15:14 | 2.98303 | 101.66503 | 14380 ft | 347 kts | 46° |
| 2026-05-04 15:14 | 2.99975 | 101.68276 | 15058 ft | 354 kts | 46° |
| 2026-05-04 15:15 | 3.01679 | 101.70080 | 15737 ft | 360 kts | 46° |
| 2026-05-04 15:15 | 3.03424 | 101.71926 | 16419 ft | 366 kts | 46° |
| 2026-05-04 15:15 | 3.05171 | 101.73773 | 17092 ft | 371 kts | 46° |
| 2026-05-04 15:16 | 3.08757 | 101.77566 | 18450 ft | 379 kts | 46° |
| 2026-05-04 15:16 | 3.10569 | 101.79481 | 19126 ft | 382 kts | 46° |
| 2026-05-04 15:16 | 3.14263 | 101.83361 | 20483 ft | 386 kts | 46° |
| 2026-05-04 15:17 | 3.16123 | 101.85319 | 21162 ft | 388 kts | 46° |
| 2026-05-04 15:17 | 3.19879 | 101.89287 | 22468 ft | 392 kts | 46° |
| 2026-05-04 15:17 | 3.21781 | 101.91298 | 22811 ft | 402 kts | 46° |
| 2026-05-04 15:18 | 3.23758 | 101.93390 | 22871 ft | 409 kts | 46° |
| 2026-05-04 15:18 | 3.25723 | 101.95469 | 22880 ft | 409 kts | 46° |
| 2026-05-04 15:18 | 3.27701 | 101.97563 | 22884 ft | 410 kts | 46° |
| 2026-05-04 15:19 | 3.31669 | 102.01762 | 22887 ft | 410 kts | 46° |
| 2026-05-04 15:19 | 3.33652 | 102.03780 | 22886 ft | 410 kts | 43° |
| 2026-05-04 15:19 | 3.38247 | 102.07269 | 22887 ft | 410 kts | 31° |
| 2026-05-04 15:20 | 3.40734 | 102.08735 | 22887 ft | 410 kts | 30° |
| 2026-05-04 15:20 | 3.43229 | 102.10155 | 22887 ft | 410 kts | 29° |
| 2026-05-04 15:20 | 3.45770 | 102.11491 | 22887 ft | 410 kts | 27° |
| 2026-05-04 15:20 | 3.48322 | 102.12794 | 22887 ft | 410 kts | 27° |
| 2026-05-04 15:21 | 3.50881 | 102.14098 | 22887 ft | 410 kts | 27° |
| 2026-05-04 15:21 | 3.53471 | 102.15419 | 22887 ft | 410 kts | 27° |
| 2026-05-04 15:21 | 3.58579 | 102.18029 | 22887 ft | 410 kts | 27° |
| 2026-05-04 15:22 | 3.61108 | 102.19322 | 22887 ft | 410 kts | 27° |
| 2026-05-04 15:22 | 3.63649 | 102.20623 | 22887 ft | 410 kts | 27° |
| 2026-05-04 15:22 | 3.68795 | 102.23257 | 22887 ft | 410 kts | 27° |
| 2026-05-04 15:23 | 3.71337 | 102.24559 | 22887 ft | 410 kts | 27° |
| 2026-05-04 15:23 | 3.73885 | 102.25864 | 22887 ft | 410 kts | 27° |
| 2026-05-04 15:23 | 3.76441 | 102.27173 | 22887 ft | 410 kts | 27° |
| 2026-05-04 15:23 | 3.78954 | 102.28461 | 22887 ft | 410 kts | 27° |
| 2026-05-04 15:24 | 3.84061 | 102.31078 | 22887 ft | 410 kts | 27° |
| 2026-05-04 15:24 | 3.89172 | 102.33696 | 22887 ft | 410 kts | 27° |
| 2026-05-04 15:25 | 3.91726 | 102.35004 | 22887 ft | 410 kts | 27° |
| 2026-05-04 15:25 | 3.94258 | 102.36302 | 22887 ft | 410 kts | 27° |
| 2026-05-04 15:25 | 3.96833 | 102.37622 | 22887 ft | 410 kts | 27° |
| 2026-05-04 15:26 | 4.01918 | 102.40229 | 22887 ft | 410 kts | 27° |
| 2026-05-04 15:26 | 4.04460 | 102.41532 | 22887 ft | 410 kts | 27° |
| 2026-05-04 15:26 | 4.09527 | 102.44129 | 22887 ft | 410 kts | 27° |
| 2026-05-04 15:27 | 4.12107 | 102.45449 | 22799 ft | 405 kts | 27° |
| 2026-05-04 15:27 | 4.17083 | 102.47987 | 21695 ft | 401 kts | 27° |
| 2026-05-04 15:28 | 4.22024 | 102.50515 | 20582 ft | 395 kts | 27° |
| 2026-05-04 15:28 | 4.24492 | 102.51780 | 20032 ft | 392 kts | 27° |
| 2026-05-04 15:28 | 4.29297 | 102.54243 | 18945 ft | 385 kts | 27° |
| 2026-05-04 15:29 | 4.31680 | 102.55466 | 18401 ft | 382 kts | 27° |
| 2026-05-04 15:30 | 4.41005 | 102.60251 | 16260 ft | 370 kts | 27° |
| 2026-05-04 15:30 | 4.47809 | 102.63744 | 14675 ft | 362 kts | 27° |
| 2026-05-04 15:31 | 4.52239 | 102.66027 | 13628 ft | 356 kts | 27° |
| 2026-05-04 15:31 | 4.54432 | 102.67167 | 13106 ft | 353 kts | 27° |
| 2026-05-04 15:32 | 4.60917 | 102.70504 | 11555 ft | 345 kts | 26° |
| 2026-05-04 15:32 | 4.65198 | 102.72626 | 10533 ft | 340 kts | 26° |
| 2026-05-04 15:33 | 4.69421 | 102.74709 | 9513 ft | 335 kts | 26° |
| 2026-05-04 15:34 | 4.75432 | 102.77681 | 8900 ft | 300 kts | 26° |
| 2026-05-04 15:34 | 4.77255 | 102.78583 | 8890 ft | 285 kts | 26° |
| 2026-05-04 15:34 | 4.80829 | 102.80351 | 8890 ft | 284 kts | 26° |
| 2026-05-04 15:35 | 4.84395 | 102.82117 | 8890 ft | 284 kts | 26° |
| 2026-05-04 15:35 | 4.86168 | 102.82948 | 8861 ft | 281 kts | 22° |
| 2026-05-04 15:35 | 4.88004 | 102.83607 | 8528 ft | 280 kts | 16° |
| 2026-05-04 15:36 | 4.91799 | 102.84589 | 7703 ft | 279 kts | 14° |
| 2026-05-04 15:36 | 4.93670 | 102.85054 | 7330 ft | 278 kts | 14° |
| 2026-05-04 15:36 | 4.95554 | 102.85525 | 6949 ft | 276 kts | 14° |
| 2026-05-04 15:37 | 4.97410 | 102.85992 | 6572 ft | 274 kts | 14° |
| 2026-05-04 15:37 | 4.99256 | 102.86459 | 6196 ft | 273 kts | 14° |
| 2026-05-04 15:37 | 5.01099 | 102.86925 | 5820 ft | 272 kts | 14° |
| 2026-05-04 15:37 | 5.02948 | 102.87395 | 5443 ft | 270 kts | 14° |
| 2026-05-04 15:38 | 5.04768 | 102.87857 | 5072 ft | 269 kts | 14° |
| 2026-05-04 15:38 | 5.06591 | 102.88320 | 4728 ft | 266 kts | 14° |
| 2026-05-04 15:38 | 5.08352 | 102.88739 | 4561 ft | 256 kts | 11° |
| 2026-05-04 15:38 | 5.10077 | 102.89079 | 4393 ft | 248 kts | 11° |
| 2026-05-04 15:39 | 5.11762 | 102.89400 | 4229 ft | 239 kts | 11° |
| 2026-05-04 15:39 | 5.13368 | 102.89703 | 4071 ft | 231 kts | 11° |
| 2026-05-04 15:39 | 5.16387 | 102.90286 | 3988 ft | 205 kts | 15° |
| 2026-05-04 15:40 | 5.17706 | 102.90768 | 4017 ft | 198 kts | 26° |
| 2026-05-04 15:40 | 5.18843 | 102.91460 | 4040 ft | 182 kts | 36° |
| 2026-05-04 15:40 | 5.19774 | 102.92232 | 3991 ft | 165 kts | 42° |
| 2026-05-04 15:40 | 5.20585 | 102.92989 | 3971 ft | 153 kts | 44° |
| 2026-05-04 15:41 | 5.21352 | 102.93731 | 3989 ft | 154 kts | 44° |
| 2026-05-04 15:41 | 5.22121 | 102.94482 | 3987 ft | 154 kts | 44° |
| 2026-05-04 15:41 | 5.22893 | 102.95238 | 3827 ft | 153 kts | 44° |
| 2026-05-04 15:41 | 5.23651 | 102.95982 | 3624 ft | 153 kts | 44° |
| 2026-05-04 15:42 | 5.24414 | 102.96732 | 3420 ft | 152 kts | 44° |
| 2026-05-04 15:42 | 5.25163 | 102.97469 | 3222 ft | 151 kts | 44° |
| 2026-05-04 15:42 | 5.25925 | 102.98219 | 3039 ft | 151 kts | 44° |
| 2026-05-04 15:42 | 5.26672 | 102.98952 | 2833 ft | 151 kts | 44° |
| 2026-05-04 15:43 | 5.27424 | 102.99690 | 2625 ft | 150 kts | 44° |
| 2026-05-04 15:43 | 5.28170 | 103.00423 | 2424 ft | 148 kts | 44° |
| 2026-05-04 15:43 | 5.28887 | 103.01128 | 2212 ft | 139 kts | 44° |
| 2026-05-04 15:43 | 5.29565 | 103.01793 | 2023 ft | 135 kts | 44° |
| 2026-05-04 15:44 | 5.30243 | 103.02459 | 1852 ft | 135 kts | 44° |
| 2026-05-04 15:44 | 5.30917 | 103.03120 | 1679 ft | 135 kts | 44° |
| 2026-05-04 15:44 | 5.31595 | 103.03786 | 1505 ft | 135 kts | 44° |
| 2026-05-04 15:44 | 5.32264 | 103.04442 | 1329 ft | 134 kts | 44° |
| 2026-05-04 15:45 | 5.32935 | 103.05101 | 1151 ft | 134 kts | 44° |
| 2026-05-04 15:45 | 5.33607 | 103.05760 | 969 ft | 134 kts | 44° |
| 2026-05-04 15:45 | 5.34266 | 103.06407 | 790 ft | 133 kts | 44° |
| 2026-05-04 15:45 | 5.34941 | 103.07069 | 608 ft | 133 kts | 44° |
| 2026-05-04 15:46 | 5.35603 | 103.07719 | 430 ft | 133 kts | 44° |
| 2026-05-04 15:46 | 5.36271 | 103.08375 | 262 ft | 132 kts | 44° |
| 2026-05-04 15:46 | 5.36925 | 103.09017 | 106 ft | 132 kts | 44° |
| 2026-05-04 15:46 | 5.37581 | 103.09650 | 30 ft | 123 kts | 46° |
| 2026-05-04 15:47 | 5.38055 | 103.10122 | 32 ft | 56 kts | 45° |
| 2026-05-04 15:47 | 5.38194 | 103.10261 | 32 ft | 14 kts | 46° |
| 2026-05-04 15:47 | 5.38199 | 103.10329 | 32 ft | 11 kts | 130° |
| 2026-05-04 15:47 | 5.38142 | 103.10384 | 32 ft | 11 kts | 136° |
| 2026-05-04 15:48 | 5.38094 | 103.10426 | 33 ft | 8 kts | 155° |
| 2026-05-04 15:48 | 5.38059 | 103.10443 | 34 ft | 4 kts | 137° |
| 2026-05-04 15:48 | 5.38027 | 103.10476 | 34 ft | 1 kts | 134° |
| 2026-05-04 15:49 | 5.38021 | 103.10482 | 35 ft | 0 kts | 134° |
| 2026-05-04 15:49 | 5.38018 | 103.10485 | 35 ft | 0 kts | 134° |